createdAt,value
2019-03-13T00:01:09.335Z,99.90
2019-03-13T00:03:40.115Z,99.90
2019-03-13T00:06:10.857Z,99.90
2019-03-13T00:08:41.632Z,99.90
2019-03-13T00:11:12.350Z,99.90
2019-03-13T00:13:43.147Z,99.90
2019-03-13T00:16:13.971Z,99.90
2019-03-13T00:18:44.728Z,99.90
2019-03-13T00:21:16.434Z,99.70
2019-03-13T00:23:47.240Z,99.70
2019-03-13T00:26:17.997Z,98.40
2019-03-13T00:28:48.764Z,97.90
2019-03-13T00:31:19.547Z,96.30
2019-03-13T00:33:51.577Z,96.60
2019-03-13T00:36:23.383Z,97.40
2019-03-13T00:38:54.119Z,99.10
2019-03-13T00:41:24.916Z,99.90
2019-03-13T00:43:55.692Z,99.90
2019-03-13T00:46:26.376Z,99.30
2019-03-13T00:48:57.144Z,99.10
2019-03-13T00:51:27.847Z,99.90
2019-03-13T00:53:58.617Z,99.90
2019-03-13T00:56:29.373Z,99.90
2019-03-13T00:59:00.073Z,99.90
2019-03-13T01:01:40.359Z,99.90
2019-03-13T01:04:36.190Z,99.90
2019-03-13T01:07:09.157Z,99.90
2019-03-13T01:09:39.857Z,99.90
2019-03-13T01:12:10.553Z,99.90
2019-03-13T01:14:41.347Z,99.90
2019-03-13T01:17:12.066Z,99.90
2019-03-13T01:19:42.706Z,99.90
2019-03-13T01:22:13.495Z,99.90
2019-03-13T01:24:44.292Z,99.90
2019-03-13T01:27:15.028Z,99.90
2019-03-13T01:29:45.814Z,99.90
2019-03-13T01:32:33.744Z,99.90
2019-03-13T01:35:17.323Z,99.90
2019-03-13T01:37:48.021Z,99.90
2019-03-13T01:40:18.776Z,99.90
2019-03-13T01:42:49.532Z,99.90
2019-03-13T01:45:20.322Z,99.90
2019-03-13T01:47:51.095Z,99.90
2019-03-13T01:50:22.471Z,99.90
2019-03-13T01:52:53.177Z,97.70
2019-03-13T01:55:23.953Z,96.60
2019-03-13T01:57:54.671Z,95.60
2019-03-13T02:00:28.237Z,95.30
2019-03-13T02:02:58.953Z,94.90
2019-03-13T02:05:29.785Z,93.40
2019-03-13T02:08:00.568Z,94.20
2019-03-13T02:10:31.316Z,94.10
2019-03-13T02:13:02.163Z,92.90
2019-03-13T02:15:32.998Z,91.40
2019-03-13T02:18:03.856Z,91.20
2019-03-13T02:20:37.592Z,92.10
2019-03-13T02:23:08.355Z,91.50
2019-03-13T02:25:39.348Z,92.70
2019-03-13T02:28:10.185Z,93.30
2019-03-13T02:30:41.104Z,93.40
2019-03-13T02:33:11.946Z,94.80
2019-03-13T02:35:42.785Z,95.90
2019-03-13T02:38:13.689Z,96.70
2019-03-13T02:40:44.685Z,96.20
2019-03-13T02:43:15.551Z,95.50
2019-03-13T02:45:46.275Z,96.40
2019-03-13T02:48:17.061Z,96.10
2019-03-13T02:50:47.857Z,96.10
2019-03-13T02:53:18.633Z,95.70
2019-03-13T02:55:49.413Z,96.00
2019-03-13T02:58:20.248Z,95.20
2019-03-13T03:01:00.100Z,95.60
2019-03-13T03:03:37.122Z,94.60
2019-03-13T03:06:07.889Z,94.80
2019-03-13T03:08:38.872Z,93.70
2019-03-13T03:11:09.664Z,93.10
2019-03-13T03:13:40.436Z,94.30
2019-03-13T03:16:11.210Z,93.90
2019-03-13T03:18:43.095Z,93.50
2019-03-13T03:21:13.875Z,94.00
2019-03-13T03:23:45.408Z,92.70
2019-03-13T03:26:16.402Z,92.60
2019-03-13T03:28:47.252Z,92.80
2019-03-13T03:31:17.990Z,92.60
2019-03-13T03:34:07.465Z,93.00
2019-03-13T03:36:38.446Z,93.80
2019-03-13T03:39:09.231Z,93.90
2019-03-13T03:41:39.958Z,94.80
2019-03-13T03:44:10.789Z,95.30
2019-03-13T03:46:41.582Z,95.70
2019-03-13T03:49:12.373Z,96.20
2019-03-13T03:51:55.513Z,97.10
2019-03-13T03:54:26.270Z,96.60
2019-03-13T03:56:57.052Z,96.40
2019-03-13T03:59:27.906Z,96.90
2019-03-13T04:01:58.829Z,98.80
2019-03-13T04:04:29.518Z,99.90
2019-03-13T04:07:00.667Z,99.80
2019-03-13T04:09:31.470Z,99.90
2019-03-13T04:12:02.326Z,99.90
2019-03-13T04:14:33.093Z,99.90
2019-03-13T04:17:03.912Z,99.90
2019-03-13T04:19:34.736Z,99.50
2019-03-13T04:22:05.600Z,99.50
2019-03-13T04:24:39.599Z,98.20
2019-03-13T04:27:10.484Z,96.40
2019-03-13T04:29:41.200Z,96.00
2019-03-13T04:32:11.976Z,95.90
2019-03-13T04:34:42.774Z,96.10
2019-03-13T04:37:13.538Z,95.30
2019-03-13T04:39:44.375Z,95.30
2019-03-13T04:42:15.122Z,94.30
2019-03-13T04:44:45.889Z,94.10
2019-03-13T04:47:16.664Z,92.80
2019-03-13T04:49:47.430Z,92.80
2019-03-13T04:52:18.184Z,93.70
2019-03-13T04:54:48.982Z,93.50
2019-03-13T04:57:19.658Z,93.80
2019-03-13T04:59:50.423Z,94.60
2019-03-13T05:02:21.110Z,94.80
2019-03-13T05:04:51.809Z,93.50
2019-03-13T05:07:22.580Z,92.30
2019-03-13T05:09:53.269Z,93.00
2019-03-13T05:12:24.066Z,91.20
2019-03-13T05:14:54.781Z,90.90
2019-03-13T05:17:25.571Z,91.60
2019-03-13T05:19:56.375Z,90.30
2019-03-13T05:22:27.090Z,89.80
2019-03-13T05:24:57.786Z,89.30
2019-03-13T05:27:28.592Z,89.80
2019-03-13T05:29:59.319Z,89.90
2019-03-13T05:32:30.065Z,89.40
2019-03-13T05:35:00.786Z,90.30
2019-03-13T05:37:31.537Z,90.20
2019-03-13T05:40:02.223Z,90.70
2019-03-13T05:42:32.990Z,91.00
2019-03-13T05:45:03.776Z,93.30
2019-03-13T05:47:34.542Z,92.00
2019-03-13T05:50:05.378Z,92.80
2019-03-13T05:52:36.144Z,93.40
2019-03-13T05:55:06.939Z,94.50
2019-03-13T05:57:37.698Z,94.80
2019-03-13T06:00:08.576Z,96.40
2019-03-13T06:02:39.339Z,97.90
2019-03-13T06:05:10.135Z,98.90
2019-03-13T06:07:40.941Z,98.80
2019-03-13T06:10:11.859Z,97.90
2019-03-13T06:12:42.623Z,96.50
2019-03-13T06:15:13.620Z,96.50
2019-03-13T06:17:44.296Z,95.50
2019-03-13T06:20:15.284Z,95.90
2019-03-13T06:22:46.043Z,96.10
2019-03-13T06:25:16.736Z,95.20
2019-03-13T06:27:47.462Z,95.80
2019-03-13T06:30:18.178Z,93.80
2019-03-13T06:32:49.019Z,93.70
2019-03-13T06:35:19.814Z,92.10
2019-03-13T06:37:50.578Z,91.10
2019-03-13T06:40:21.325Z,91.00
2019-03-13T06:42:52.118Z,89.30
2019-03-13T06:45:24.006Z,85.70
2019-03-13T06:47:54.761Z,83.90
2019-03-13T06:50:25.531Z,85.00
2019-03-13T06:52:56.293Z,85.40
2019-03-13T06:55:27.034Z,86.80
2019-03-13T06:57:57.766Z,86.60
2019-03-13T07:00:48.567Z,88.10
2019-03-13T07:03:38.318Z,87.60
2019-03-13T07:06:26.518Z,89.20
2019-03-13T07:09:31.616Z,88.60
2019-03-13T07:12:24.494Z,88.40
2019-03-13T07:15:20.216Z,88.70
2019-03-13T07:17:55.816Z,89.30
2019-03-13T07:21:00.849Z,88.00
2019-03-13T07:23:50.549Z,88.20
2019-03-13T07:26:38.849Z,88.80
2019-03-13T07:29:28.950Z,87.60
2019-03-13T07:32:14.700Z,86.60
2019-03-13T07:35:07.431Z,85.80
2019-03-13T07:37:55.781Z,85.60
2019-03-13T07:40:54.454Z,86.00
2019-03-13T07:43:39.395Z,85.70
2019-03-13T07:46:22.063Z,85.50
2019-03-13T07:49:10.163Z,84.40
2019-03-13T07:52:02.816Z,84.50
2019-03-13T07:54:51.138Z,86.10
2019-03-13T07:57:43.577Z,90.00
2019-03-13T08:00:36.148Z,91.40
2019-03-13T08:03:44.435Z,93.30
2019-03-13T08:06:33.955Z,93.50
2019-03-13T08:09:12.962Z,94.70
2019-03-13T08:12:02.644Z,93.90
2019-03-13T08:15:07.395Z,92.80
2019-03-13T08:18:00.039Z,91.50
2019-03-13T08:20:48.735Z,89.10
2019-03-13T08:23:45.101Z,90.20
2019-03-13T08:26:28.221Z,91.50
2019-03-13T08:29:17.908Z,93.70
2019-03-13T08:32:04.641Z,94.10
2019-03-13T08:34:43.640Z,89.60
2019-03-13T08:37:36.141Z,88.80
2019-03-13T08:40:24.502Z,85.70
2019-03-13T08:43:13.041Z,87.20
2019-03-13T08:45:50.410Z,86.20
2019-03-13T08:48:55.274Z,85.40
2019-03-13T08:51:54.027Z,86.10
2019-03-13T08:54:47.720Z,86.50
2019-03-13T08:57:40.231Z,86.60
2019-03-13T09:00:31.372Z,86.70
2019-03-13T09:03:21.072Z,86.30
2019-03-13T09:06:26.157Z,87.80
2019-03-13T09:09:14.694Z,86.00
2019-03-13T09:11:57.756Z,86.10
2019-03-13T09:14:35.915Z,86.20
2019-03-13T09:17:37.928Z,87.20
2019-03-13T09:20:31.148Z,88.30
2019-03-13T09:23:10.088Z,87.50
2019-03-13T09:25:51.946Z,87.00
2019-03-13T09:28:39.837Z,87.40
2019-03-13T09:31:39.800Z,84.50
2019-03-13T09:34:29.711Z,86.10
2019-03-13T09:37:28.613Z,83.00
2019-03-13T09:40:18.244Z,78.50
2019-03-13T09:43:11.025Z,79.60
2019-03-13T09:45:57.546Z,79.20
2019-03-13T09:48:46.114Z,79.20
2019-03-13T09:51:34.489Z,81.30
2019-03-13T09:54:30.254Z,81.10
2019-03-13T09:57:18.529Z,82.70
2019-03-13T10:00:08.210Z,79.10
2019-03-13T10:02:58.301Z,77.90
2019-03-13T10:05:50.762Z,78.70
2019-03-13T10:08:42.072Z,78.60
2019-03-13T10:11:27.403Z,74.90
2019-03-13T10:14:20.018Z,77.30
2019-03-13T10:17:10.722Z,77.70
2019-03-13T10:20:02.016Z,79.50
2019-03-13T10:22:51.701Z,80.80
2019-03-13T10:25:31.645Z,81.90
2019-03-13T10:28:33.701Z,81.00
2019-03-13T10:31:16.100Z,80.20
2019-03-13T10:34:04.490Z,78.60
2019-03-13T10:36:50.709Z,78.70
2019-03-13T10:39:39.390Z,77.30
2019-03-13T10:42:17.098Z,71.80
2019-03-13T10:45:12.659Z,73.10
2019-03-13T10:47:51.641Z,75.50
2019-03-13T10:50:39.387Z,73.30
2019-03-13T10:53:35.200Z,70.90
2019-03-13T10:56:37.052Z,70.80
2019-03-13T10:59:38.667Z,68.70
2019-03-13T11:02:16.019Z,65.60
2019-03-13T11:05:15.208Z,70.50
2019-03-13T11:08:03.458Z,69.20
2019-03-13T11:10:53.189Z,70.10
2019-03-13T11:13:37.190Z,72.00
2019-03-13T11:16:25.478Z,70.40
2019-03-13T11:19:15.279Z,71.90
2019-03-13T11:21:51.487Z,73.90
2019-03-13T11:24:33.788Z,74.10
2019-03-13T11:27:26.387Z,74.50
2019-03-13T11:30:25.300Z,75.10
2019-03-13T11:33:13.811Z,75.90
2019-03-13T11:35:57.030Z,75.90
2019-03-13T11:38:41.778Z,77.00
2019-03-13T11:41:27.191Z,76.50
2019-03-13T11:44:19.871Z,75.00
2019-03-13T11:47:08.452Z,77.40
2019-03-13T11:49:56.833Z,78.00
2019-03-13T11:52:49.808Z,78.60
2019-03-13T11:55:39.506Z,77.70
2019-03-13T11:58:15.104Z,77.80
2019-03-13T12:01:17.185Z,77.20
2019-03-13T12:04:02.414Z,76.90
2019-03-13T12:06:58.246Z,76.50
2019-03-13T12:09:55.399Z,76.30
2019-03-13T12:12:51.924Z,77.90
2019-03-13T12:15:48.006Z,79.40
2019-03-13T12:18:26.235Z,80.30
2019-03-13T12:21:18.983Z,80.70
2019-03-13T12:24:16.486Z,80.50
2019-03-13T12:26:57.324Z,80.70
2019-03-13T12:29:52.889Z,81.70
2019-03-13T12:32:32.655Z,82.20
2019-03-13T12:35:20.395Z,81.60
2019-03-13T12:38:16.140Z,83.30
2019-03-13T12:41:11.849Z,80.40
2019-03-13T12:43:51.291Z,79.20
2019-03-13T12:46:49.381Z,79.90
2019-03-13T12:49:51.054Z,79.30
2019-03-13T12:52:43.205Z,77.00
2019-03-13T12:55:31.798Z,77.10
2019-03-13T12:58:20.156Z,79.70
2019-03-13T13:01:09.862Z,79.30
2019-03-13T13:04:11.651Z,80.50
2019-03-13T13:07:10.553Z,82.50
2019-03-13T13:10:12.420Z,86.60
2019-03-13T13:13:17.186Z,85.80
2019-03-13T13:15:59.391Z,87.20
2019-03-13T13:18:51.824Z,87.90
2019-03-13T13:21:22.991Z,87.70
2019-03-13T13:23:53.747Z,86.80
2019-03-13T13:26:24.461Z,87.30
2019-03-13T13:28:55.166Z,85.80
2019-03-13T13:31:26.235Z,86.00
2019-03-13T13:33:57.012Z,85.70
2019-03-13T13:36:28.005Z,87.30
2019-03-13T13:38:59.313Z,85.50
2019-03-13T13:41:30.014Z,87.40
2019-03-13T13:44:00.763Z,90.20
2019-03-13T13:46:33.801Z,92.30
2019-03-13T13:49:05.447Z,93.40
2019-03-13T13:51:36.270Z,93.60
2019-03-13T13:54:07.150Z,95.10
2019-03-13T13:56:37.926Z,94.70
2019-03-13T13:59:08.682Z,92.80
2019-03-13T14:01:39.749Z,93.70
2019-03-13T14:04:10.521Z,93.20
2019-03-13T14:06:41.233Z,94.90
2019-03-13T14:09:11.937Z,92.80
2019-03-13T14:11:42.674Z,92.80
2019-03-13T14:14:13.350Z,92.30
2019-03-13T14:16:44.066Z,91.90
2019-03-13T14:19:14.843Z,92.50
2019-03-13T14:21:45.778Z,92.50
2019-03-13T14:24:17.526Z,91.80
2019-03-13T14:26:48.311Z,89.60
2019-03-13T14:29:18.957Z,90.30
2019-03-13T14:31:49.705Z,93.00
2019-03-13T14:34:20.389Z,91.50
2019-03-13T14:36:51.146Z,92.00
2019-03-13T14:39:22.010Z,90.30
2019-03-13T14:41:52.798Z,91.40
2019-03-13T14:44:23.516Z,94.40
2019-03-13T14:46:54.241Z,92.80
2019-03-13T14:49:24.997Z,93.30
2019-03-13T14:51:55.773Z,92.90
2019-03-13T14:54:26.683Z,93.20
2019-03-13T14:56:57.506Z,96.20
2019-03-13T14:59:28.202Z,98.60
2019-03-13T15:01:58.949Z,98.40
2019-03-13T15:04:29.715Z,95.20
2019-03-13T15:07:00.481Z,96.00
2019-03-13T15:09:33.201Z,97.60
2019-03-13T15:12:03.891Z,97.60
2019-03-13T15:14:34.630Z,99.80
2019-03-13T15:17:05.337Z,99.90
2019-03-13T15:19:36.003Z,99.90
2019-03-13T15:22:06.722Z,99.90
2019-03-13T15:24:37.465Z,99.90
2019-03-13T15:27:08.246Z,99.90
2019-03-13T15:29:38.998Z,99.90
2019-03-13T15:32:09.694Z,99.90
2019-03-13T15:34:41.594Z,99.90
2019-03-13T15:37:12.426Z,99.90
2019-03-13T15:39:43.133Z,99.90
2019-03-13T15:42:13.878Z,99.90
2019-03-13T15:44:44.666Z,99.90
2019-03-13T15:47:15.362Z,99.90
2019-03-13T15:49:46.118Z,99.90
2019-03-13T15:52:16.854Z,99.90
2019-03-13T15:54:47.630Z,99.90
2019-03-13T15:57:18.653Z,99.90
2019-03-13T15:59:49.603Z,99.90
2019-03-13T16:02:20.380Z,99.90
2019-03-13T16:04:51.196Z,99.90
2019-03-13T16:07:21.922Z,99.90
2019-03-13T16:09:52.626Z,99.90
2019-03-13T16:12:23.346Z,99.90
2019-03-13T16:14:54.110Z,99.90
2019-03-13T16:17:24.876Z,99.90
2019-03-13T16:19:55.603Z,99.90
2019-03-13T16:22:26.328Z,99.90
2019-03-13T16:24:57.145Z,99.90
2019-03-13T16:27:29.061Z,99.90
2019-03-13T16:29:59.787Z,99.90
2019-03-13T16:32:43.293Z,99.90
2019-03-13T16:35:02.900Z,99.90
2019-03-13T16:37:33.575Z,99.90
2019-03-13T16:40:04.335Z,99.90
2019-03-13T16:42:35.369Z,99.90
2019-03-13T16:45:06.685Z,99.90
2019-03-13T16:47:37.490Z,99.90
2019-03-13T16:50:10.462Z,99.90
2019-03-13T16:52:41.194Z,99.90
2019-03-13T16:55:14.191Z,99.90
2019-03-13T16:57:45.087Z,99.90
2019-03-13T17:00:20.994Z,99.90
2019-03-13T17:02:52.035Z,99.90
2019-03-13T17:05:22.847Z,99.90
2019-03-13T17:07:53.595Z,99.90
2019-03-13T17:10:24.340Z,99.90
2019-03-13T17:12:55.106Z,99.90
2019-03-13T17:15:25.933Z,99.90
2019-03-13T17:17:56.808Z,99.90
2019-03-13T17:20:27.644Z,99.90
2019-03-13T17:22:58.372Z,99.90
2019-03-13T17:25:29.105Z,99.90
2019-03-13T17:27:59.948Z,99.90
2019-03-13T17:30:30.729Z,99.90
2019-03-13T17:33:02.114Z,99.90
2019-03-13T17:35:32.820Z,99.90
2019-03-13T17:38:04.529Z,99.90
2019-03-13T17:40:35.255Z,99.90
2019-03-13T17:43:06.080Z,99.90
2019-03-13T17:45:36.826Z,99.90
2019-03-13T17:48:08.036Z,99.90
2019-03-13T17:50:38.698Z,99.90
2019-03-13T17:53:09.445Z,99.90
2019-03-13T17:55:40.612Z,99.90
2019-03-13T17:58:11.317Z,99.90
2019-03-13T18:00:50.187Z,99.90
2019-03-13T18:03:21.645Z,99.90
2019-03-13T18:05:52.318Z,99.90
2019-03-13T18:08:23.045Z,99.90
2019-03-13T18:10:53.697Z,99.90
2019-03-13T18:13:24.407Z,99.90
2019-03-13T18:15:55.103Z,99.90
2019-03-13T18:18:25.803Z,99.90
2019-03-13T18:20:56.556Z,99.90
2019-03-13T18:23:27.283Z,99.90
2019-03-13T18:25:57.878Z,99.90
2019-03-13T18:28:28.615Z,99.90
2019-03-13T18:31:01.952Z,99.90
2019-03-13T18:33:32.548Z,99.90
2019-03-13T18:36:03.352Z,99.90
2019-03-13T18:38:34.052Z,99.90
2019-03-13T18:41:04.726Z,99.90
2019-03-13T18:43:35.483Z,99.90
2019-03-13T18:46:06.198Z,99.90
2019-03-13T18:48:36.948Z,99.90
2019-03-13T18:51:07.703Z,99.90
2019-03-13T18:53:38.380Z,99.90
2019-03-13T18:56:09.134Z,99.90
2019-03-13T18:58:39.880Z,99.90
2019-03-13T19:01:10.659Z,99.90
2019-03-13T19:03:41.363Z,99.90
2019-03-13T19:06:12.115Z,99.90
2019-03-13T19:08:42.837Z,99.90
2019-03-13T19:11:13.653Z,99.90
2019-03-13T19:13:44.308Z,99.90
2019-03-13T19:16:15.095Z,99.90
2019-03-13T19:18:45.865Z,99.90
2019-03-13T19:21:16.557Z,99.90
2019-03-13T19:23:48.622Z,99.90
2019-03-13T19:26:19.340Z,99.90
2019-03-13T19:28:49.948Z,99.90
2019-03-13T19:31:20.711Z,99.90
2019-03-13T19:33:51.650Z,99.90
2019-03-13T19:36:22.409Z,99.90
2019-03-13T19:38:53.085Z,99.90
2019-03-13T19:41:23.791Z,99.90
2019-03-13T19:43:54.548Z,99.90
2019-03-13T19:46:25.270Z,99.90
2019-03-13T19:48:55.966Z,99.90
2019-03-13T19:51:26.734Z,99.90
2019-03-13T19:53:57.428Z,99.90
2019-03-13T19:56:28.125Z,99.90
2019-03-13T19:58:58.815Z,99.90
2019-03-13T20:01:29.557Z,99.90
2019-03-13T20:04:00.232Z,99.90
2019-03-13T20:06:41.589Z,99.90
2019-03-13T20:09:03.846Z,99.90
2019-03-13T20:11:34.582Z,99.90
2019-03-13T20:14:05.299Z,99.90
2019-03-13T20:16:36.090Z,99.90
2019-03-13T20:19:06.751Z,99.90
2019-03-13T20:21:37.461Z,99.90
2019-03-13T20:24:08.194Z,99.90
2019-03-13T20:26:38.922Z,99.90
2019-03-13T20:29:09.616Z,99.90
2019-03-13T20:31:40.363Z,99.90
2019-03-13T20:34:11.078Z,99.90
2019-03-13T20:36:41.815Z,99.90
2019-03-13T20:39:12.511Z,99.90
2019-03-13T20:41:43.259Z,99.90
2019-03-13T20:44:13.996Z,99.90
2019-03-13T20:46:44.759Z,99.90
2019-03-13T20:49:15.471Z,99.90
2019-03-13T20:51:46.246Z,99.90
2019-03-13T20:54:16.929Z,99.90
2019-03-13T20:56:47.736Z,99.90
2019-03-13T20:59:18.481Z,99.90
2019-03-13T21:01:49.251Z,99.90
2019-03-13T21:04:19.983Z,99.90
2019-03-13T21:06:50.698Z,99.90
2019-03-13T21:09:21.355Z,99.90
2019-03-13T21:11:52.161Z,99.90
2019-03-13T21:14:23.080Z,99.90
2019-03-13T21:16:53.705Z,99.90
2019-03-13T21:19:24.982Z,99.90
2019-03-13T21:21:55.637Z,99.90
2019-03-13T21:24:26.346Z,99.90
2019-03-13T21:26:57.099Z,99.90
2019-03-13T21:29:27.855Z,99.90
2019-03-13T21:31:58.596Z,99.90
2019-03-13T21:34:29.347Z,99.90
2019-03-13T21:37:00.115Z,99.90
2019-03-13T21:39:30.862Z,99.90
2019-03-13T21:42:01.659Z,99.90
2019-03-13T21:44:32.397Z,99.90
2019-03-13T21:47:03.210Z,99.90
2019-03-13T21:49:33.945Z,99.90
2019-03-13T21:52:04.582Z,99.90
2019-03-13T21:54:35.499Z,99.90
2019-03-13T21:57:06.264Z,99.90
2019-03-13T21:59:36.941Z,99.90
2019-03-13T22:02:07.737Z,99.90
2019-03-13T22:04:38.522Z,99.90
2019-03-13T22:21:57.625Z,99.90
2019-03-13T22:24:28.524Z,99.90
2019-03-13T22:27:01.272Z,99.90
2019-03-13T22:29:32.043Z,99.90
2019-03-13T22:32:02.791Z,99.90
2019-03-13T22:34:33.604Z,99.90
2019-03-13T22:37:04.400Z,99.90
2019-03-13T22:39:35.207Z,99.90
2019-03-13T22:42:06.023Z,99.90
2019-03-13T22:44:36.769Z,99.90
2019-03-13T22:47:07.514Z,99.90
2019-03-13T22:49:38.282Z,99.90
2019-03-13T22:52:09.060Z,99.90
2019-03-13T22:54:39.815Z,99.90
2019-03-13T22:57:10.560Z,99.90
2019-03-13T22:59:41.318Z,99.90
2019-03-13T23:02:12.193Z,99.90
2019-03-13T23:04:42.979Z,99.90
2019-03-13T23:07:13.665Z,99.90
2019-03-13T23:09:45.523Z,99.90
2019-03-13T23:12:16.270Z,99.90
2019-03-13T23:14:47.024Z,99.90
2019-03-13T23:17:17.762Z,99.90
2019-03-13T23:19:48.497Z,99.90
2019-03-13T23:22:19.263Z,99.90
2019-03-13T23:24:49.991Z,99.90
2019-03-13T23:27:20.696Z,99.90
2019-03-13T23:29:51.451Z,99.90
2019-03-13T23:32:22.259Z,99.90
2019-03-13T23:34:52.894Z,99.90
2019-03-13T23:37:23.631Z,99.90
2019-03-13T23:39:54.276Z,99.90
2019-03-13T23:42:25.042Z,99.90
2019-03-13T23:44:55.769Z,99.90
2019-03-13T23:47:26.546Z,99.90
2019-03-13T23:49:57.314Z,99.90
2019-03-13T23:52:28.057Z,99.90
2019-03-13T23:54:58.814Z,99.90
2019-03-13T23:57:29.649Z,99.90
